Time;durP1;ratioP1;P1;durP2;ratioP2;P2;SDS_P1;SDS_P2;PMS_P1;PMS_P2;Temp;Humidity;BMP_temperature;BMP_pressure;BME280_temperature;BME280_humidity;BME280_pressure;Samples;Min_cycle;Max_cycle;Signal;HPM_P1;HPM_P2
2022/07/01 00:00:28;;;;;;;11.93;10.10;;;;;;;18.25;100.00;96219.53;10412803;28;20659;-60
2022/07/01 00:05:29;;;;;;;14.80;10.38;;;;;;;18.31;100.00;96218.66;10412247;28;20669;-57
2022/07/01 00:10:29;;;;;;;17.10;11.25;;;;;;;18.26;100.00;96225.66;10412425;28;20607;-59
2022/07/01 00:15:30;;;;;;;13.07;10.70;;;;;;;18.23;100.00;96223.44;10412352;28;20695;-59
2022/07/01 00:20:30;;;;;;;14.73;10.95;;;;;;;18.21;100.00;96215.69;10411524;28;20262;-60
2022/07/01 00:25:30;;;;;;;13.80;10.20;;;;;;;18.30;100.00;96221.53;10412239;28;20216;-60
2022/07/01 00:30:31;;;;;;;10.85;9.73;;;;;;;18.44;100.00;96209.78;10411782;28;20204;-61
2022/07/01 00:35:31;;;;;;;15.63;10.65;;;;;;;18.60;100.00;96216.34;10412585;28;20219;-61
2022/07/01 00:40:32;;;;;;;15.35;10.50;;;;;;;18.74;100.00;96217.03;10411530;28;20498;-61
2022/07/01 00:45:32;;;;;;;10.43;9.35;;;;;;;18.41;100.00;96220.81;10411587;28;20212;-61
2022/07/01 00:50:32;;;;;;;10.68;9.57;;;;;;;17.97;100.00;96214.66;10411514;28;20239;-61
2022/07/01 00:55:33;;;;;;;14.93;10.57;;;;;;;17.80;100.00;96212.50;10410800;28;20265;-59
2022/07/01 01:00:34;;;;;;;13.73;10.85;;;;;;;17.91;100.00;96212.88;10411148;28;20203;-59
2022/07/01 01:05:34;;;;;;;18.75;11.43;;;;;;;18.07;100.00;96203.56;10410949;28;20212;-61
2022/07/01 01:10:36;;;;;;;13.05;9.50;;;;;;;18.53;100.00;96197.84;10409917;28;20287;-59
2022/07/01 01:15:37;;;;;;;16.42;9.65;;;;;;;18.81;100.00;96182.47;10411167;28;20643;-61
2022/07/01 01:20:37;;;;;;;11.75;9.45;;;;;;;18.89;100.00;96182.19;10410818;28;20207;-61
2022/07/01 01:25:37;;;;;;;10.35;9.27;;;;;;;18.93;100.00;96177.25;10411175;28;20591;-61
2022/07/01 01:30:38;;;;;;;9.57;8.32;;;;;;;18.96;100.00;96174.13;10412414;28;20188;-60
2022/07/01 01:35:38;;;;;;;13.90;9.13;;;;;;;18.86;100.00;96167.50;10418447;28;20219;-61
2022/07/01 01:40:39;;;;;;;9.57;8.13;;;;;;;18.74;100.00;96165.81;10419098;28;20189;-61
2022/07/01 01:45:40;;;;;;;16.42;9.52;;;;;;;18.63;100.00;96162.84;10417844;28;20212;-59
2022/07/01 01:50:40;;;;;;;16.52;9.80;;;;;;;18.43;100.00;96165.72;10417912;28;20201;-55
2022/07/01 01:55:41;;;;;;;11.13;9.90;;;;;;;18.40;100.00;96157.41;10417255;28;20715;-59
2022/07/01 02:00:41;;;;;;;15.75;10.25;;;;;;;18.30;100.00;96169.31;10417484;28;20727;-61
2022/07/01 02:05:41;;;;;;;13.10;9.80;;;;;;;18.32;100.00;96155.84;10417779;28;20695;-61
2022/07/01 02:10:42;;;;;;;11.85;10.20;;;;;;;18.24;100.00;96164.06;10416929;28;20643;-61
2022/07/01 02:15:42;;;;;;;15.95;10.88;;;;;;;18.26;100.00;96172.63;10416889;28;20293;-61
2022/07/01 02:20:43;;;;;;;16.58;10.20;;;;;;;18.28;100.00;96166.06;10416447;28;20196;-61
2022/07/01 02:25:43;;;;;;;11.55;9.85;;;;;;;18.33;100.00;96165.41;10416502;28;20215;-61
2022/07/01 02:30:44;;;;;;;17.83;10.18;;;;;;;18.22;100.00;96179.38;10415845;28;20220;-61
2022/07/01 02:35:44;;;;;;;13.23;9.48;;;;;;;18.31;100.00;96192.13;10416119;28;20232;-61
2022/07/01 02:40:44;;;;;;;12.32;10.13;;;;;;;18.29;100.00;96182.78;10415549;28;20189;-61
2022/07/01 02:45:45;;;;;;;12.85;9.48;;;;;;;18.35;100.00;96190.69;10415578;28;20296;-61
2022/07/01 02:50:45;;;;;;;10.93;8.88;;;;;;;18.45;100.00;96181.41;10415527;28;20188;-60
2022/07/01 02:55:46;;;;;;;10.18;8.65;;;;;;;18.48;100.00;96187.09;10448208;22;20267;-57
2022/07/01 03:00:48;;;;;;;9.40;8.38;;;;;;;18.50;100.00;96194.84;10412770;28;20208;-60
2022/07/01 03:05:49;;;;;;;8.95;8.13;;;;;;;18.54;100.00;96199.50;10415050;28;20203;-59
2022/07/01 03:10:49;;;;;;;11.35;10.00;;;;;;;18.39;100.00;96199.00;10414488;28;20567;-61
2022/07/01 03:15:49;;;;;;;17.40;9.10;;;;;;;18.61;100.00;96194.09;10414341;28;20196;-59
2022/07/01 03:20:51;;;;;;;12.60;8.63;;;;;;;18.72;100.00;96203.19;10414351;28;20200;-60
2022/07/01 03:25:51;;;;;;;12.13;8.60;;;;;;;18.73;100.00;96202.16;10413826;28;20192;-60
2022/07/01 03:30:52;;;;;;;9.82;8.88;;;;;;;18.61;100.00;96214.53;10413452;28;20275;-61
2022/07/01 03:35:52;;;;;;;15.55;9.20;;;;;;;18.69;100.00;96225.66;10413183;28;20223;-61
2022/07/01 03:40:53;;;;;;;10.93;8.85;;;;;;;18.72;100.00;96227.84;10413559;28;20592;-60
2022/07/01 03:45:53;;;;;;;10.18;9.27;;;;;;;18.72;100.00;96217.25;10413302;28;20200;-59
2022/07/01 03:50:53;;;;;;;14.70;9.40;;;;;;;18.81;100.00;96231.03;10412817;28;20214;-61
2022/07/01 03:55:54;;;;;;;12.48;8.85;;;;;;;19.03;100.00;96247.34;10412058;28;20604;-57
2022/07/01 04:00:54;;;;;;;11.25;8.57;;;;;;;19.25;100.00;96249.59;10412429;28;20196;-60
2022/07/01 04:05:54;;;;;;;11.13;8.63;;;;;;;19.48;100.00;96256.84;10412743;28;20192;-61
2022/07/01 04:10:56;;;;;;;11.23;7.78;;;;;;;19.76;100.00;96274.06;10412306;28;20219;-58
2022/07/01 04:16:00;;;;;;;11.20;7.80;;;;;;;20.01;100.00;96278.44;10412241;28;20220;-61
2022/07/01 04:26:19;;;;;;;13.20;8.05;;;;;;;20.09;100.00;96297.56;10412173;28;20209;-60
2022/07/01 04:31:20;;;;;;;8.88;7.85;;;;;;;20.49;100.00;96304.13;10411502;28;20593;-62
2022/07/01 04:36:21;;;;;;;9.93;7.00;;;;;;;20.79;100.00;96296.03;10411472;28;20683;-61
2022/07/01 04:46:41;;;;;;;9.93;5.95;;;;;;;21.95;100.00;96301.63;10411179;28;20593;-61
2022/07/01 04:51:42;;;;;;;7.13;5.88;;;;;;;21.98;100.00;96299.28;10411365;28;20299;-61
2022/07/01 04:56:42;;;;;;;6.78;5.47;;;;;;;22.44;100.00;96310.75;10411092;28;20285;-62
2022/07/01 05:01:43;;;;;;;7.13;5.40;;;;;;;22.44;96.31;96315.31;10411022;28;20219;-61
2022/07/01 05:06:44;;;;;;;10.23;5.70;;;;;;;22.09;95.10;96327.75;10417491;28;20200;-59
2022/07/01 05:11:44;;;;;;;9.07;5.63;;;;;;;22.16;95.03;96321.44;10418996;28;20235;-61
2022/07/01 05:16:44;;;;;;;7.60;5.80;;;;;;;22.09;95.61;96345.63;10419395;28;20643;-58
2022/07/01 05:21:57;;;;;;;12.90;6.28;;;;;;;21.87;92.62;96332.16;10419061;28;20577;-59
2022/07/01 05:26:58;;;;;;;12.98;5.85;;;;;;;21.71;94.53;96350.50;10418761;28;20244;-61
2022/07/01 05:31:58;;;;;;;10.38;5.50;;;;;;;22.30;93.30;96354.81;10418781;28;20662;-61
2022/07/01 05:36:59;;;;;;;10.40;6.13;;;;;;;21.65;97.89;96361.31;10418227;28;20345;-60
2022/07/01 05:41:59;;;;;;;7.38;5.35;;;;;;;22.03;94.57;96347.38;10418316;28;20196;-60
2022/07/01 05:46:59;;;;;;;13.45;6.45;;;;;;;22.03;92.79;96350.03;10417923;28;20223;-60
2022/07/01 05:52:00;;;;;;;9.43;7.00;;;;;;;21.64;96.03;96367.66;10417778;28;20696;-61
2022/07/01 05:57:00;;;;;;;11.98;7.25;;;;;;;21.68;97.16;96382.16;10417374;28;20239;-61
2022/07/01 06:02:00;;;;;;;9.52;5.80;;;;;;;21.97;95.78;96372.34;10417363;28;20542;-60
2022/07/01 06:07:01;;;;;;;6.95;5.65;;;;;;;22.15;92.96;96355.34;10417242;28;20243;-60
2022/07/01 06:12:01;;;;;;;13.00;6.25;;;;;;;21.91;94.39;96362.63;10417015;28;20228;-60
2022/07/01 06:17:01;;;;;;;10.02;5.63;;;;;;;21.87;94.86;96358.81;10415841;28;20205;-61
2022/07/01 06:22:02;;;;;;;12.07;6.72;;;;;;;21.69;94.40;96367.78;10416901;28;20266;-60
2022/07/01 06:27:04;;;;;;;13.90;6.40;;;;;;;22.47;92.64;96349.53;10416413;28;20224;-62
2022/07/01 06:32:05;;;;;;;9.68;5.97;;;;;;;22.91;87.22;96319.47;10416174;28;20216;-59
2022/07/01 06:37:05;;;;;;;12.80;7.15;;;;;;;22.31;95.33;96361.78;10416008;28;20243;-61
2022/07/01 06:42:06;;;;;;;8.02;6.97;;;;;;;22.48;87.71;96329.78;10416388;28;20212;-58
2022/07/01 06:47:06;;;;;;;10.90;6.78;;;;;;;22.06;89.53;96349.56;10415938;28;20270;-59
2022/07/01 06:52:07;;;;;;;11.60;8.25;;;;;;;21.56;93.65;96358.19;10415511;28;20595;-61
2022/07/01 06:57:07;;;;;;;9.05;6.75;;;;;;;22.33;90.49;96346.34;10415556;28;20612;-60
2022/07/01 07:02:08;;;;;;;9.63;6.38;;;;;;;21.79;93.28;96365.34;10414911;28;20185;-61
2022/07/01 07:07:08;;;;;;;11.95;6.80;;;;;;;21.42;98.21;96386.91;10415046;28;20204;-61
2022/07/01 07:12:09;;;;;;;8.77;6.15;;;;;;;21.60;97.92;96388.66;10414788;28;20224;-61
2022/07/01 07:17:09;;;;;;;8.60;7.70;;;;;;;21.57;95.07;96391.00;10414401;28;20212;-61
2022/07/01 07:22:10;;;;;;;10.77;6.95;;;;;;;21.16;96.12;96404.19;10414826;28;20223;-61
2022/07/01 07:27:10;;;;;;;8.50;5.53;;;;;;;21.83;92.26;96395.81;10413948;28;20295;-60
2022/07/01 07:32:10;;;;;;;10.50;5.40;;;;;;;21.94;91.92;96399.47;10413764;28;20220;-60
2022/07/01 07:37:11;;;;;;;8.57;6.10;;;;;;;22.02;91.11;96407.13;10414254;28;20247;-59
2022/07/01 07:42:12;;;;;;;6.50;5.90;;;;;;;21.30;98.33;96428.75;10414032;28;20199;-60
2022/07/01 07:47:12;;;;;;;9.95;6.18;;;;;;;21.20;100.00;96435.47;10413442;28;20220;-60
2022/07/01 07:52:12;;;;;;;7.43;6.15;;;;;;;21.45;100.00;96447.75;10413237;28;20228;-60
2022/07/01 07:57:13;;;;;;;11.02;5.70;;;;;;;21.88;98.08;96445.75;10413181;28;20244;-61
2022/07/01 08:02:14;;;;;;;9.63;6.40;;;;;;;21.88;95.32;96435.09;10412999;28;20184;-61
2022/07/01 08:07:14;;;;;;;8.35;7.20;;;;;;;21.33;99.19;96445.09;10413054;28;20295;-60
2022/07/01 08:12:15;;;;;;;9.18;6.75;;;;;;;21.94;96.78;96442.16;10412915;28;20239;-60
2022/07/01 08:17:15;;;;;;;15.90;7.63;;;;;;;21.31;100.00;96457.81;10412203;28;20220;-60
2022/07/01 08:22:16;;;;;;;15.15;9.25;;;;;;;21.81;96.80;96463.78;10412633;28;20177;-60
2022/07/01 08:27:17;;;;;;;12.18;10.60;;;;;;;21.40;98.08;96468.97;10412318;28;20215;-60
2022/07/01 08:32:18;;;;;;;15.77;10.82;;;;;;;21.74;99.67;96471.88;10411363;28;20223;-61
2022/07/01 08:37:18;;;;;;;15.10;11.05;;;;;;;21.87;96.44;96484.16;10411833;28;20769;-59
2022/07/01 08:42:18;;;;;;;13.55;12.07;;;;;;;21.08;100.00;96479.94;10411486;28;20279;-61
2022/07/01 08:47:19;;;;;;;15.57;11.90;;;;;;;20.77;100.00;96491.69;10411648;28;20224;-61
2022/07/01 08:52:19;;;;;;;21.08;12.35;;;;;;;20.55;100.00;96496.63;10411838;28;20228;-61
2022/07/01 08:57:21;;;;;;;18.85;13.85;;;;;;;19.88;100.00;96503.56;10411438;28;20710;-61
2022/07/01 09:02:24;;;;;;;18.25;14.73;;;;;;;19.71;100.00;96503.31;10411577;28;20251;-61
2022/07/01 09:07:33;;;;;;;22.92;16.75;;;;;;;19.12;100.00;96533.84;10411501;28;20645;-61
2022/07/01 09:12:42;;;;;;;26.38;16.10;;;;;;;19.51;100.00;96532.72;10411335;28;20221;-61
2022/07/01 09:17:43;;;;;;;29.60;19.35;;;;;;;18.51;100.00;96542.13;10410987;28;20715;-60
2022/07/01 09:23:16;;;;;;;27.80;17.65;;;;;;;18.30;100.00;96547.69;10411206;28;20200;-60
2022/07/01 09:28:21;;;;;;;18.15;14.13;;;;;;;18.90;100.00;96555.44;10410001;28;20252;-60
2022/07/01 09:33:26;;;;;;;19.58;13.80;;;;;;;19.09;100.00;96564.28;10410369;28;20306;-60
2022/07/01 09:38:26;;;;;;;18.70;14.18;;;;;;;18.86;100.00;96581.56;10410748;28;20223;-60
2022/07/01 09:43:34;;;;;;;20.67;14.10;;;;;;;19.12;100.00;96576.31;10410835;28;20191;-60
2022/07/01 09:48:35;;;;;;;19.75;14.07;;;;;;;18.84;100.00;96583.59;10410335;28;20244;-57
2022/07/01 09:53:35;;;;;;;16.73;12.43;;;;;;;19.24;100.00;96593.22;10416085;28;20714;-60
2022/07/01 09:58:38;;;;;;;16.98;10.85;;;;;;;19.39;100.00;96587.59;10417650;28;20240;-61
2022/07/01 10:03:40;;;;;;;14.98;10.38;;;;;;;19.59;100.00;96574.16;10417834;28;20287;-59
2022/07/01 10:09:09;;;;;;;8.43;7.25;;;;;;;19.94;97.58;96555.88;10416187;28;20216;-59
2022/07/01 10:14:13;;;;;;;12.27;9.07;;;;;;;19.82;100.00;96551.50;10415948;28;20216;-61
2022/07/01 10:19:20;;;;;;;9.13;7.95;;;;;;;19.97;96.02;96541.31;10415988;28;20266;-60
2022/07/01 10:24:20;;;;;;;14.27;8.70;;;;;;;19.37;100.00;96544.47;10416706;28;20211;-59
2022/07/01 10:29:30;;;;;;;11.02;8.20;;;;;;;19.71;99.74;96556.47;10416823;28;20212;-60
2022/07/01 10:34:35;;;;;;;11.10;9.02;;;;;;;19.15;100.00;96565.28;10416239;28;20220;-60
2022/07/01 10:39:56;;;;;;;11.63;8.80;;;;;;;20.13;99.19;96558.53;10416261;28;20366;-60
2022/07/01 10:45:06;;;;;;;12.15;7.38;;;;;;;20.69;97.53;96546.03;10415797;28;20181;-60
2022/07/01 10:50:09;;;;;;;8.77;7.78;;;;;;;20.82;91.32;96537.06;10415650;28;20216;-60
2022/07/01 10:55:09;;;;;;;11.23;7.53;;;;;;;20.35;94.14;96550.13;10415543;28;20715;-61
2022/07/01 11:00:09;;;;;;;11.13;9.77;;;;;;;19.55;97.54;96584.38;10415153;28;20240;-62
2022/07/01 11:05:12;;;;;;;12.80;8.70;;;;;;;18.91;100.00;96611.97;10414951;28;20196;-61
2022/07/01 11:10:18;;;;;;;13.00;9.00;;;;;;;18.69;100.00;96625.50;10414973;28;20219;-59
2022/07/01 11:15:18;;;;;;;12.65;10.13;;;;;;;17.93;100.00;96648.09;10414981;28;20306;-60
2022/07/01 11:20:22;;;;;;;12.05;10.18;;;;;;;17.40;100.00;96660.28;10413102;28;20324;-60
2022/07/01 11:25:22;;;;;;;11.32;9.57;;;;;;;17.19;100.00;96649.84;10414614;28;20185;-58
2022/07/01 11:30:23;;;;;;;11.55;8.70;;;;;;;17.65;100.00;96622.59;10413787;28;20217;-60
2022/07/01 11:40:48;;;;;;;7.88;7.03;;;;;;;16.67;100.00;96660.81;10413677;28;20717;-61
2022/07/01 11:45:48;;;;;;;10.45;7.55;;;;;;;16.40;100.00;96650.09;10413443;28;20195;-62
2022/07/01 11:50:49;;;;;;;7.65;6.82;;;;;;;16.11;100.00;96656.44;10413510;28;20185;-62
2022/07/01 11:55:49;;;;;;;5.72;5.15;;;;;;;16.43;100.00;96633.00;10411742;28;20224;-62
2022/07/01 12:00:50;;;;;;;2.75;2.55;;;;;;;16.07;100.00;96641.16;10413252;28;20258;-63
2022/07/01 12:05:52;;;;;;;5.30;3.00;;;;;;;16.03;100.00;96651.28;10413197;28;20212;-63
2022/07/01 12:10:52;;;;;;;3.80;2.05;;;;;;;16.37;100.00;96653.13;10412720;28;20278;-63
2022/07/01 12:15:53;;;;;;;2.88;1.63;;;;;;;16.08;100.00;96669.19;10410591;28;20634;-62
2022/07/01 12:20:53;;;;;;;2.97;1.60;;;;;;;16.09;100.00;96674.28;10410941;28;20291;-62
2022/07/01 12:25:54;;;;;;;4.03;1.45;;;;;;;15.89;100.00;96663.56;10412325;28;20208;-62
2022/07/01 12:31:02;;;;;;;1.70;1.60;;;;;;;15.61;100.00;96679.38;10412161;28;20575;-61
2022/07/01 12:36:03;;;;;;;2.53;2.33;;;;;;;15.91;100.00;96684.50;10412002;28;20263;-62
2022/07/01 12:41:28;;;;;;;3.38;2.10;;;;;;;15.83;100.00;96688.94;10411928;28;20213;-62
2022/07/01 12:46:30;;;;;;;2.50;2.30;;;;;;;15.78;100.00;96693.16;10411490;28;20573;-61
2022/07/01 12:51:32;;;;;;;2.17;2.08;;;;;;;15.27;100.00;96700.16;10411570;28;20224;-61
2022/07/01 12:56:32;;;;;;;3.10;2.90;;;;;;;14.91;100.00;96710.69;10411145;28;20604;-61
2022/07/01 13:01:33;;;;;;;3.40;3.10;;;;;;;15.23;100.00;96719.97;10410432;28;20223;-61
2022/07/01 13:06:33;;;;;;;5.97;5.32;;;;;;;15.33;100.00;96688.03;10410011;28;20271;-61
2022/07/01 13:11:33;;;;;;;5.05;4.60;;;;;;;15.77;100.00;96715.25;10411389;28;20212;-61
2022/07/01 13:16:34;;;;;;;5.57;5.07;;;;;;;15.23;100.00;96733.19;10411420;28;20220;-59
2022/07/01 13:21:34;;;;;;;5.18;4.68;;;;;;;15.52;100.00;96745.47;10410976;28;20208;-59
2022/07/01 13:26:35;;;;;;;4.45;4.05;;;;;;;15.20;100.00;96767.06;10415363;28;20208;-59
2022/07/01 13:31:35;;;;;;;5.82;3.83;;;;;;;15.07;100.00;96762.41;10418295;28;20232;-59
2022/07/01 13:36:39;;;;;;;4.20;3.85;;;;;;;14.98;100.00;96770.44;10419121;28;20208;-59
2022/07/01 13:41:40;;;;;;;4.35;4.03;;;;;;;15.02;100.00;96780.63;10419745;28;20195;-61
2022/07/01 13:46:40;;;;;;;4.25;3.35;;;;;;;15.11;100.00;96774.25;10418440;28;20212;-60
2022/07/01 13:51:41;;;;;;;3.75;3.45;;;;;;;15.30;100.00;96776.31;10418894;28;20228;-61
2022/07/01 13:56:42;;;;;;;4.38;4.07;;;;;;;15.14;100.00;96790.53;10419311;28;20267;-60
2022/07/01 14:01:43;;;;;;;4.93;4.50;;;;;;;15.02;100.00;96793.81;10419995;28;20193;-59
2022/07/01 14:06:43;;;;;;;5.40;4.90;;;;;;;14.78;100.00;96785.19;10417434;28;20556;-57
2022/07/01 14:11:45;;;;;;;6.53;4.55;;;;;;;15.30;100.00;96776.31;10417580;28;20220;-60
2022/07/01 14:16:46;;;;;;;5.20;4.70;;;;;;;15.30;100.00;96783.44;10417022;28;20217;-59
2022/07/01 14:21:46;;;;;;;4.20;3.80;;;;;;;15.62;100.00;96791.88;10416578;28;20196;-60
2022/07/01 14:26:46;;;;;;;5.13;4.53;;;;;;;15.33;100.00;96798.91;10416587;28;20655;-59
2022/07/01 14:31:47;;;;;;;5.85;4.78;;;;;;;15.58;100.00;96804.66;10416138;28;20633;-57
2022/07/01 14:36:48;;;;;;;5.45;5.00;;;;;;;15.20;100.00;96810.09;10415221;28;20208;-60
2022/07/01 14:41:50;;;;;;;7.10;6.38;;;;;;;15.39;100.00;96826.34;10416832;28;20621;-60
2022/07/01 14:46:51;;;;;;;6.32;5.38;;;;;;;15.45;100.00;96844.94;10415299;28;20212;-59
2022/07/01 14:51:51;;;;;;;7.40;5.65;;;;;;;15.32;100.00;96845.56;10415836;28;20687;-60
2022/07/01 14:56:52;;;;;;;6.50;5.90;;;;;;;15.29;100.00;96848.56;10415149;28;20251;-59
2022/07/01 15:01:54;;;;;;;6.90;6.20;;;;;;;15.45;100.00;96834.38;10438385;22;20327;-59
2022/07/01 15:06:55;;;;;;;7.07;5.75;;;;;;;15.58;100.00;96833.72;10414728;28;20204;-59
2022/07/01 15:11:55;;;;;;;10.00;5.72;;;;;;;15.37;100.00;96831.00;10415709;28;20251;-60
2022/07/01 15:16:57;;;;;;;6.93;6.25;;;;;;;15.48;100.00;96846.38;10414470;28;20223;-60
2022/07/01 15:21:58;;;;;;;7.50;6.78;;;;;;;15.03;100.00;96856.13;10414032;28;20247;-60
2022/07/01 15:26:58;;;;;;;7.20;6.57;;;;;;;15.08;100.00;96861.69;10414008;28;20365;-61
2022/07/01 15:31:59;;;;;;;8.95;6.35;;;;;;;15.15;100.00;96858.13;10413780;28;20239;-60
2022/07/01 15:37:00;;;;;;;7.63;6.82;;;;;;;15.47;100.00;96863.22;10416944;28;20192;-61
2022/07/01 15:42:02;;;;;;;7.22;6.53;;;;;;;15.31;100.00;96861.59;10412127;28;20281;-59
2022/07/01 15:52:21;;;;;;;6.90;6.20;;;;;;;15.31;100.00;96891.47;10412160;28;20444;-57
2022/07/01 15:57:22;;;;;;;6.35;5.75;;;;;;;15.29;100.00;96900.56;10413137;28;20204;-58
2022/07/01 16:02:22;;;;;;;11.57;7.68;;;;;;;15.26;100.00;96908.84;10412632;28;20639;-58
2022/07/01 16:07:24;;;;;;;10.13;7.57;;;;;;;15.05;100.00;96917.44;10412200;28;20219;-58
2022/07/01 16:12:25;;;;;;;9.73;8.60;;;;;;;15.08;100.00;96922.38;10412219;28;20602;-59
2022/07/01 16:17:33;;;;;;;9.07;7.93;;;;;;;15.09;100.00;96929.28;10411802;28;20197;-59
2022/07/01 16:22:35;;;;;;;8.93;8.02;;;;;;;15.08;100.00;96922.38;10411844;28;20254;-60
2022/07/01 16:27:37;;;;;;;8.35;7.55;;;;;;;14.94;100.00;96931.91;10411693;28;20197;-60
2022/07/01 16:32:44;;;;;;;9.43;7.32;;;;;;;14.94;100.00;96927.44;10409483;28;20220;-58
2022/07/01 16:37:51;;;;;;;8.50;7.13;;;;;;;15.00;100.00;96910.06;10411516;28;20184;-58
2022/07/01 16:42:51;;;;;;;8.07;6.53;;;;;;;15.13;100.00;96912.06;10410561;28;20184;-60
2022/07/01 16:47:55;;;;;;;6.57;5.95;;;;;;;15.33;100.00;96900.00;10411244;28;20562;-58
2022/07/01 16:52:55;;;;;;;8.38;6.28;;;;;;;14.98;100.00;96897.06;10411392;28;20228;-58
2022/07/01 16:58:05;;;;;;;6.82;5.88;;;;;;;15.01;100.00;96900.31;10409777;28;20691;-59
2022/07/01 17:03:05;;;;;;;7.03;6.00;;;;;;;15.28;100.00;96898.91;10418124;28;20196;-58
2022/07/01 17:08:07;;;;;;;9.45;7.70;;;;;;;14.59;100.00;96891.94;10419446;28;20286;-58
2022/07/01 17:13:08;;;;;;;8.82;7.88;;;;;;;15.17;100.00;96886.97;10419203;28;20220;-58
2022/07/01 17:18:09;;;;;;;9.48;7.78;;;;;;;15.41;100.00;96891.19;10418812;28;20231;-60
2022/07/01 17:23:15;;;;;;;9.20;7.68;;;;;;;15.23;100.00;96903.91;10419246;28;20200;-60
2022/07/01 17:28:29;;;;;;;14.80;8.98;;;;;;;14.94;100.00;96932.69;10417259;28;20217;-58
2022/07/01 17:33:31;;;;;;;10.90;8.43;;;;;;;14.66;100.00;96934.28;10418330;28;20228;-61
2022/07/01 17:38:53;;;;;;;12.00;9.07;;;;;;;14.77;100.00;96925.94;10417977;28;20223;-59
2022/07/01 17:43:59;;;;;;;9.82;8.70;;;;;;;14.87;100.00;96942.34;10418250;28;20216;-61
2022/07/01 17:49:01;;;;;;;13.32;9.85;;;;;;;14.71;100.00;96969.66;10416817;28;20668;-59
2022/07/01 17:54:02;;;;;;;14.20;9.45;;;;;;;14.83;100.00;96967.44;10417699;28;20225;-58
2022/07/01 17:59:03;;;;;;;37.90;9.75;;;;;;;14.60;100.00;96985.88;10417399;28;20243;-58
2022/07/01 18:04:06;;;;;;;13.68;10.07;;;;;;;14.41;100.00;96984.47;10418167;28;20195;-60
2022/07/01 18:09:06;;;;;;;14.65;10.13;;;;;;;14.32;100.00;96999.53;10417044;28;20216;-60
2022/07/01 18:14:44;;;;;;;13.98;10.93;;;;;;;14.08;100.00;97019.72;10415703;28;20216;-56
2022/07/01 18:20:08;;;;;;;15.20;9.85;;;;;;;14.03;100.00;97037.06;10416765;28;20225;-60
2022/07/01 18:25:11;;;;;;;17.73;11.30;;;;;;;13.92;100.00;97038.25;10416475;28;20201;-60
2022/07/01 18:30:14;;;;;;;19.50;11.50;;;;;;;13.83;100.00;97044.53;10415861;28;20216;-59
2022/07/01 18:35:15;;;;;;;15.18;11.55;;;;;;;13.53;100.00;97031.09;10415811;28;20220;-60
2022/07/01 18:40:17;;;;;;;14.63;11.13;;;;;;;13.62;100.00;97043.25;10416127;28;20220;-61
2022/07/01 18:45:17;;;;;;;18.30;12.35;;;;;;;13.57;100.00;97056.09;10415708;28;20188;-61
2022/07/01 18:50:19;;;;;;;16.67;11.23;;;;;;;13.50;100.00;97065.63;10415888;28;20208;-60
2022/07/01 18:55:20;;;;;;;16.98;10.93;;;;;;;13.46;100.00;97075.69;10415448;28;20304;-59
2022/07/01 19:00:24;;;;;;;17.15;10.70;;;;;;;13.39;100.00;97069.44;10414940;28;20378;-60
2022/07/01 19:05:24;;;;;;;17.17;10.38;;;;;;;13.34;100.00;97087.53;10415313;28;20238;-57
2022/07/01 19:10:25;;;;;;;14.15;8.73;;;;;;;13.11;100.00;97100.44;10414475;28;20274;-59
2022/07/01 19:15:25;;;;;;;15.05;10.18;;;;;;;13.10;100.00;97097.00;10415079;28;20232;-60
2022/07/01 19:20:25;;;;;;;11.02;8.98;;;;;;;13.16;100.00;97101.63;10414222;28;20220;-58
2022/07/01 19:25:26;;;;;;;13.23;8.95;;;;;;;12.93;100.00;97111.13;10414280;28;20219;-60
2022/07/01 19:30:26;;;;;;;13.00;9.80;;;;;;;12.89;100.00;97131.66;10413820;28;20215;-60
2022/07/01 19:35:26;;;;;;;10.95;8.05;;;;;;;12.89;100.00;97120.31;10413719;28;20220;-58
2022/07/01 19:40:27;;;;;;;15.45;8.70;;;;;;;12.76;100.00;97126.84;10413933;28;20240;-61
2022/07/01 19:45:27;;;;;;;15.90;8.55;;;;;;;12.75;100.00;97155.94;10413343;28;20196;-60
2022/07/01 19:50:28;;;;;;;8.63;7.28;;;;;;;12.79;100.00;97165.16;10413370;28;20208;-58
2022/07/01 19:55:28;;;;;;;10.10;7.68;;;;;;;12.78;100.00;97166.13;10413442;28;20223;-59
2022/07/01 20:00:28;;;;;;;12.88;8.00;;;;;;;12.61;100.00;97173.13;10412602;28;20236;-56
2022/07/01 20:05:29;;;;;;;11.93;7.93;;;;;;;12.28;100.00;97193.97;10413054;28;20293;-61
2022/07/01 20:10:32;;;;;;;10.05;6.32;;;;;;;12.31;100.00;97191.03;10413771;28;20340;-60
2022/07/01 20:15:33;;;;;;;13.18;6.07;;;;;;;12.27;100.00;97203.66;10416327;28;20702;-59
2022/07/01 20:20:33;;;;;;;10.90;7.68;;;;;;;11.94;100.00;97211.34;10412377;28;20220;-62
2022/07/01 20:25:34;;;;;;;10.30;7.10;;;;;;;12.08;100.00;97217.84;10412153;28;20193;-56
2022/07/01 20:30:34;;;;;;;10.25;7.60;;;;;;;12.04;100.00;97213.88;10411697;28;20769;-60
2022/07/01 20:35:35;;;;;;;11.52;8.23;;;;;;;12.00;100.00;97230.09;10411143;28;20212;-58
2022/07/01 20:40:35;;;;;;;10.45;7.75;;;;;;;12.02;100.00;97222.88;10411737;28;20240;-60
2022/07/01 20:45:35;;;;;;;48.75;19.05;;;;;;;11.92;100.00;97228.19;10411632;28;20250;-61
2022/07/01 20:50:36;;;;;;;26.98;13.82;;;;;;;11.87;100.00;97226.03;10411393;28;20208;-59
2022/07/01 20:55:36;;;;;;;14.85;9.40;;;;;;;11.84;100.00;97231.56;10411336;28;20224;-57
2022/07/01 21:00:36;;;;;;;14.18;8.93;;;;;;;11.67;100.00;97235.84;10432570;23;20253;-55
2022/07/01 21:05:37;;;;;;;14.27;8.30;;;;;;;11.66;100.00;97236.00;10412583;28;20185;-57
2022/07/01 21:10:37;;;;;;;17.27;9.20;;;;;;;11.52;100.00;97245.22;10411991;28;20236;-53
2022/07/01 21:15:38;;;;;;;16.67;9.43;;;;;;;11.42;100.00;97261.00;10411634;28;20270;-55
2022/07/01 21:20:38;;;;;;;14.00;8.82;;;;;;;11.42;100.00;97247.91;10411433;28;20217;-55
2022/07/01 21:25:38;;;;;;;10.05;8.75;;;;;;;11.31;100.00;97256.00;10410950;28;20727;-55
2022/07/01 21:30:39;;;;;;;14.77;9.35;;;;;;;11.30;100.00;97254.34;10410319;28;20554;-60
2022/07/01 21:35:39;;;;;;;12.38;8.07;;;;;;;11.26;100.00;97261.69;10410753;28;20595;-54
2022/07/01 21:40:40;;;;;;;14.70;10.75;;;;;;;11.30;100.00;97249.94;10410241;28;20225;-52
2022/07/01 21:45:42;;;;;;;13.77;10.55;;;;;;;11.21;100.00;97251.63;10394265;28;20193;-60
2022/07/01 21:50:42;;;;;;;16.63;10.18;;;;;;;11.11;100.00;97250.03;10417792;28;20216;-59
2022/07/01 21:55:45;;;;;;;16.48;10.45;;;;;;;11.10;100.00;97248.38;10417818;28;20221;-59
2022/07/01 22:00:45;;;;;;;12.97;10.00;;;;;;;11.04;100.00;97253.25;10417402;28;20228;-56
2022/07/01 22:11:05;;;;;;;16.40;11.10;;;;;;;10.94;100.00;97277.84;10401804;28;20208;-55
2022/07/01 22:16:06;;;;;;;18.15;11.93;;;;;;;10.98;100.00;97282.66;10416773;28;20221;-56
2022/07/01 22:21:11;;;;;;;18.42;12.10;;;;;;;10.98;100.00;97284.44;10417107;28;20286;-55
2022/07/01 22:26:12;;;;;;;19.05;12.02;;;;;;;11.02;100.00;97280.56;10416727;28;20592;-53
2022/07/01 22:31:13;;;;;;;16.97;12.17;;;;;;;11.02;100.00;97275.31;10398859;28;20570;-56
2022/07/01 22:36:14;;;;;;;17.92;12.13;;;;;;;10.97;100.00;97267.91;10416037;28;20224;-53
2022/07/01 22:41:16;;;;;;;21.58;13.75;;;;;;;10.95;100.00;97269.84;10416193;28;20208;-53
2022/07/01 22:46:39;;;;;;;18.15;12.45;;;;;;;10.96;100.00;97261.00;10416086;28;20195;-51
2022/07/01 22:51:45;;;;;;;16.15;11.32;;;;;;;10.94;100.00;97262.94;10398168;28;20350;-51
2022/07/01 22:56:46;;;;;;;23.35;13.43;;;;;;;10.87;100.00;97272.34;10415523;28;20208;-58
2022/07/01 23:01:51;;;;;;;25.15;12.00;;;;;;;10.76;100.00;97269.91;10414681;28;20243;-56
2022/07/01 23:06:55;;;;;;;18.25;11.88;;;;;;;10.65;100.00;97271.75;10415487;28;20651;-55
2022/07/01 23:12:02;;;;;;;19.00;12.68;;;;;;;10.57;100.00;97279.50;10397217;28;20212;-56
2022/07/01 23:17:04;;;;;;;16.40;11.23;;;;;;;10.50;100.00;97281.03;10414770;28;20544;-54
2022/07/01 23:22:05;;;;;;;20.40;12.15;;;;;;;10.44;100.00;97274.56;10414583;28;20222;-54